sensor_id;sensor_type;location;lat;lon;timestamp;P1;durP1;ratioP1;P2;durP2;ratioP2
10471;SDS011;5283;48.876;8.962;2023-04-01T00:02:12;4.57;;;1.30;;
10471;SDS011;5283;48.876;8.962;2023-04-01T00:04:39;2.17;;;0.70;;
10471;SDS011;5283;48.876;8.962;2023-04-01T00:07:06;1.70;;;0.70;;
10471;SDS011;5283;48.876;8.962;2023-04-01T00:09:32;2.67;;;0.77;;
10471;SDS011;5283;48.876;8.962;2023-04-01T00:11:59;2.03;;;0.43;;
10471;SDS011;5283;48.876;8.962;2023-04-01T00:14:26;2.03;;;0.83;;
10471;SDS011;5283;48.876;8.962;2023-04-01T00:16:53;1.87;;;0.77;;
10471;SDS011;5283;48.876;8.962;2023-04-01T00:19:19;2.53;;;0.87;;
10471;SDS011;5283;48.876;8.962;2023-04-01T00:21:46;3.03;;;0.87;;
10471;SDS011;5283;48.876;8.962;2023-04-01T00:24:14;2.23;;;1.13;;
10471;SDS011;5283;48.876;8.962;2023-04-01T00:26:40;4.17;;;1.27;;
10471;SDS011;5283;48.876;8.962;2023-04-01T00:29:08;3.17;;;1.50;;
10471;SDS011;5283;48.876;8.962;2023-04-01T00:31:35;3.87;;;1.23;;
10471;SDS011;5283;48.876;8.962;2023-04-01T00:34:01;2.10;;;0.60;;
10471;SDS011;5283;48.876;8.962;2023-04-01T00:36:28;2.73;;;0.83;;
10471;SDS011;5283;48.876;8.962;2023-04-01T00:38:55;2.67;;;0.93;;
10471;SDS011;5283;48.876;8.962;2023-04-01T00:41:23;4.43;;;1.07;;
10471;SDS011;5283;48.876;8.962;2023-04-01T00:43:52;4.70;;;0.90;;
10471;SDS011;5283;48.876;8.962;2023-04-01T00:46:39;4.70;;;1.20;;
10471;SDS011;5283;48.876;8.962;2023-04-01T00:49:06;2.30;;;1.10;;
10471;SDS011;5283;48.876;8.962;2023-04-01T00:51:33;3.40;;;0.90;;
10471;SDS011;5283;48.876;8.962;2023-04-01T00:54:01;4.53;;;1.23;;
10471;SDS011;5283;48.876;8.962;2023-04-01T00:56:45;4.97;;;1.53;;
10471;SDS011;5283;48.876;8.962;2023-04-01T00:59:26;3.47;;;1.30;;
10471;SDS011;5283;48.876;8.962;2023-04-01T01:01:57;1.43;;;0.63;;
10471;SDS011;5283;48.876;8.962;2023-04-01T01:04:26;3.73;;;0.90;;
10471;SDS011;5283;48.876;8.962;2023-04-01T01:12:18;2.27;;;1.10;;
10471;SDS011;5283;48.876;8.962;2023-04-01T01:17:56;3.27;;;0.80;;
10471;SDS011;5283;48.876;8.962;2023-04-01T01:36:53;2.30;;;0.80;;
10471;SDS011;5283;48.876;8.962;2023-04-01T01:39:25;2.33;;;0.73;;
10471;SDS011;5283;48.876;8.962;2023-04-01T01:41:55;3.10;;;0.90;;
10471;SDS011;5283;48.876;8.962;2023-04-01T01:44:25;3.10;;;0.90;;
10471;SDS011;5283;48.876;8.962;2023-04-01T01:46:55;1.20;;;0.60;;
10471;SDS011;5283;48.876;8.962;2023-04-01T01:49:23;2.20;;;0.70;;
10471;SDS011;5283;48.876;8.962;2023-04-01T01:51:50;2.33;;;0.40;;
10471;SDS011;5283;48.876;8.962;2023-04-01T01:54:17;3.17;;;1.10;;
10471;SDS011;5283;48.876;8.962;2023-04-01T01:56:45;1.83;;;0.53;;
10471;SDS011;5283;48.876;8.962;2023-04-01T01:59:15;1.03;;;0.50;;
10471;SDS011;5283;48.876;8.962;2023-04-01T02:01:46;1.93;;;0.70;;
10471;SDS011;5283;48.876;8.962;2023-04-01T02:04:16;1.90;;;0.40;;
10471;SDS011;5283;48.876;8.962;2023-04-01T02:06:53;0.67;;;0.57;;
10471;SDS011;5283;48.876;8.962;2023-04-01T02:09:26;1.97;;;0.70;;
10471;SDS011;5283;48.876;8.962;2023-04-01T02:11:56;2.37;;;0.60;;
10471;SDS011;5283;48.876;8.962;2023-04-01T02:17:05;1.23;;;0.40;;
10471;SDS011;5283;48.876;8.962;2023-04-01T02:19:40;3.83;;;1.23;;
10471;SDS011;5283;48.876;8.962;2023-04-01T02:22:16;2.67;;;0.63;;
10471;SDS011;5283;48.876;8.962;2023-04-01T02:24:48;2.73;;;0.73;;
10471;SDS011;5283;48.876;8.962;2023-04-01T02:27:18;5.03;;;0.90;;
10471;SDS011;5283;48.876;8.962;2023-04-01T02:29:45;3.00;;;0.67;;
10471;SDS011;5283;48.876;8.962;2023-04-01T02:32:12;1.53;;;0.70;;
10471;SDS011;5283;48.876;8.962;2023-04-01T02:34:40;1.03;;;0.43;;
10471;SDS011;5283;48.876;8.962;2023-04-01T02:37:08;1.60;;;0.60;;
10471;SDS011;5283;48.876;8.962;2023-04-01T02:39:36;1.50;;;0.60;;
10471;SDS011;5283;48.876;8.962;2023-04-01T02:42:03;3.10;;;0.70;;
10471;SDS011;5283;48.876;8.962;2023-04-01T02:44:30;1.73;;;0.83;;
10471;SDS011;5283;48.876;8.962;2023-04-01T02:46:56;2.03;;;0.50;;
10471;SDS011;5283;48.876;8.962;2023-04-01T02:49:23;2.33;;;0.70;;
10471;SDS011;5283;48.876;8.962;2023-04-01T02:51:50;2.90;;;0.70;;
10471;SDS011;5283;48.876;8.962;2023-04-01T02:54:18;1.33;;;0.60;;
10471;SDS011;5283;48.876;8.962;2023-04-01T02:56:45;1.23;;;0.50;;
10471;SDS011;5283;48.876;8.962;2023-04-01T02:59:12;1.70;;;0.60;;
10471;SDS011;5283;48.876;8.962;2023-04-01T03:01:38;1.03;;;0.70;;
10471;SDS011;5283;48.876;8.962;2023-04-01T03:04:05;2.40;;;0.70;;
10471;SDS011;5283;48.876;8.962;2023-04-01T03:06:32;3.00;;;0.80;;
10471;SDS011;5283;48.876;8.962;2023-04-01T03:08:59;5.03;;;0.97;;
10471;SDS011;5283;48.876;8.962;2023-04-01T03:11:25;1.60;;;0.43;;
10471;SDS011;5283;48.876;8.962;2023-04-01T03:13:52;2.83;;;0.50;;
10471;SDS011;5283;48.876;8.962;2023-04-01T03:16:19;3.03;;;0.90;;
10471;SDS011;5283;48.876;8.962;2023-04-01T03:18:45;2.53;;;0.70;;
10471;SDS011;5283;48.876;8.962;2023-04-01T03:21:16;0.87;;;0.40;;
10471;SDS011;5283;48.876;8.962;2023-04-01T03:23:48;0.80;;;0.50;;
10471;SDS011;5283;48.876;8.962;2023-04-01T03:26:15;0.40;;;0.30;;
10471;SDS011;5283;48.876;8.962;2023-04-01T03:28:42;1.20;;;0.57;;
10471;SDS011;5283;48.876;8.962;2023-04-01T03:31:09;0.83;;;0.40;;
10471;SDS011;5283;48.876;8.962;2023-04-01T03:33:36;0.77;;;0.50;;
10471;SDS011;5283;48.876;8.962;2023-04-01T03:36:03;1.50;;;0.53;;
10471;SDS011;5283;48.876;8.962;2023-04-01T03:38:33;2.30;;;0.63;;
10471;SDS011;5283;48.876;8.962;2023-04-01T03:41:01;0.93;;;0.30;;
10471;SDS011;5283;48.876;8.962;2023-04-01T03:43:27;2.50;;;0.80;;
10471;SDS011;5283;48.876;8.962;2023-04-01T03:45:54;2.93;;;0.40;;
10471;SDS011;5283;48.876;8.962;2023-04-01T03:48:23;1.20;;;0.53;;
10471;SDS011;5283;48.876;8.962;2023-04-01T03:50:51;1.23;;;0.53;;
10471;SDS011;5283;48.876;8.962;2023-04-01T03:53:18;2.13;;;0.63;;
10471;SDS011;5283;48.876;8.962;2023-04-01T03:55:45;1.67;;;0.57;;
10471;SDS011;5283;48.876;8.962;2023-04-01T03:58:12;1.27;;;0.40;;
10471;SDS011;5283;48.876;8.962;2023-04-01T04:00:39;1.40;;;0.70;;
10471;SDS011;5283;48.876;8.962;2023-04-01T04:03:06;1.43;;;0.57;;
10471;SDS011;5283;48.876;8.962;2023-04-01T04:05:33;0.83;;;0.33;;
10471;SDS011;5283;48.876;8.962;2023-04-01T04:07:59;3.03;;;0.60;;
10471;SDS011;5283;48.876;8.962;2023-04-01T04:10:26;1.57;;;0.57;;
10471;SDS011;5283;48.876;8.962;2023-04-01T04:12:55;2.20;;;0.50;;
10471;SDS011;5283;48.876;8.962;2023-04-01T04:15:22;1.60;;;0.40;;
10471;SDS011;5283;48.876;8.962;2023-04-01T04:17:49;1.50;;;0.77;;
10471;SDS011;5283;48.876;8.962;2023-04-01T04:20:16;1.47;;;0.57;;
10471;SDS011;5283;48.876;8.962;2023-04-01T04:22:43;1.67;;;0.33;;
10471;SDS011;5283;48.876;8.962;2023-04-01T04:25:09;2.77;;;0.73;;
10471;SDS011;5283;48.876;8.962;2023-04-01T04:27:36;1.80;;;0.70;;
10471;SDS011;5283;48.876;8.962;2023-04-01T04:30:03;3.07;;;0.63;;
10471;SDS011;5283;48.876;8.962;2023-04-01T04:32:31;2.17;;;0.60;;
10471;SDS011;5283;48.876;8.962;2023-04-01T04:34:58;1.30;;;0.50;;
10471;SDS011;5283;48.876;8.962;2023-04-01T04:37:24;2.80;;;0.80;;
10471;SDS011;5283;48.876;8.962;2023-04-01T04:39:51;1.87;;;0.40;;
10471;SDS011;5283;48.876;8.962;2023-04-01T04:42:18;1.13;;;0.50;;
10471;SDS011;5283;48.876;8.962;2023-04-01T04:44:45;1.10;;;0.80;;
10471;SDS011;5283;48.876;8.962;2023-04-01T04:47:12;2.27;;;1.00;;
10471;SDS011;5283;48.876;8.962;2023-04-01T04:49:38;1.20;;;0.50;;
10471;SDS011;5283;48.876;8.962;2023-04-01T04:52:05;3.73;;;0.83;;
10471;SDS011;5283;48.876;8.962;2023-04-01T04:54:32;1.90;;;0.83;;
10471;SDS011;5283;48.876;8.962;2023-04-01T04:56:59;1.93;;;0.70;;
10471;SDS011;5283;48.876;8.962;2023-04-01T04:59:26;1.17;;;0.53;;
10471;SDS011;5283;48.876;8.962;2023-04-01T05:01:52;3.03;;;0.70;;
10471;SDS011;5283;48.876;8.962;2023-04-01T05:04:19;2.37;;;0.80;;
10471;SDS011;5283;48.876;8.962;2023-04-01T05:06:46;1.93;;;0.60;;
10471;SDS011;5283;48.876;8.962;2023-04-01T05:09:12;2.43;;;0.60;;
10471;SDS011;5283;48.876;8.962;2023-04-01T05:11:39;2.67;;;1.10;;
10471;SDS011;5283;48.876;8.962;2023-04-01T05:14:11;2.37;;;0.73;;
10471;SDS011;5283;48.876;8.962;2023-04-01T05:16:38;3.27;;;0.63;;
10471;SDS011;5283;48.876;8.962;2023-04-01T05:19:05;3.27;;;0.80;;
10471;SDS011;5283;48.876;8.962;2023-04-01T05:21:32;4.53;;;0.97;;
10471;SDS011;5283;48.876;8.962;2023-04-01T05:23:58;1.13;;;0.57;;
10471;SDS011;5283;48.876;8.962;2023-04-01T05:26:25;2.47;;;0.60;;
10471;SDS011;5283;48.876;8.962;2023-04-01T05:28:52;1.07;;;0.57;;
10471;SDS011;5283;48.876;8.962;2023-04-01T05:31:18;1.53;;;0.53;;
10471;SDS011;5283;48.876;8.962;2023-04-01T05:33:45;4.13;;;0.70;;
10471;SDS011;5283;48.876;8.962;2023-04-01T05:36:13;1.53;;;0.63;;
10471;SDS011;5283;48.876;8.962;2023-04-01T05:38:41;1.17;;;0.50;;
10471;SDS011;5283;48.876;8.962;2023-04-01T05:41:09;2.27;;;1.00;;
10471;SDS011;5283;48.876;8.962;2023-04-01T05:43:36;2.77;;;0.70;;
10471;SDS011;5283;48.876;8.962;2023-04-01T05:46:03;1.93;;;0.90;;
10471;SDS011;5283;48.876;8.962;2023-04-01T05:48:30;1.90;;;0.57;;
10471;SDS011;5283;48.876;8.962;2023-04-01T05:50:58;2.17;;;0.73;;
10471;SDS011;5283;48.876;8.962;2023-04-01T05:53:25;1.63;;;0.60;;
10471;SDS011;5283;48.876;8.962;2023-04-01T05:55:52;1.83;;;0.70;;
10471;SDS011;5283;48.876;8.962;2023-04-01T05:58:18;2.00;;;0.90;;
10471;SDS011;5283;48.876;8.962;2023-04-01T06:00:45;2.17;;;0.60;;
10471;SDS011;5283;48.876;8.962;2023-04-01T06:03:13;1.93;;;0.60;;
10471;SDS011;5283;48.876;8.962;2023-04-01T06:05:40;1.50;;;0.50;;
10471;SDS011;5283;48.876;8.962;2023-04-01T06:08:12;1.87;;;0.50;;
10471;SDS011;5283;48.876;8.962;2023-04-01T06:11:05;2.07;;;0.60;;
10471;SDS011;5283;48.876;8.962;2023-04-01T06:21:50;2.73;;;0.50;;
10471;SDS011;5283;48.876;8.962;2023-04-01T06:24:34;1.60;;;0.60;;
10471;SDS011;5283;48.876;8.962;2023-04-01T06:30:33;2.63;;;0.70;;
10471;SDS011;5283;48.876;8.962;2023-04-01T06:36:11;1.23;;;0.57;;
10471;SDS011;5283;48.876;8.962;2023-04-01T06:39:07;2.07;;;0.73;;
10471;SDS011;5283;48.876;8.962;2023-04-01T06:41:56;1.87;;;0.47;;
10471;SDS011;5283;48.876;8.962;2023-04-01T06:44:47;1.07;;;0.40;;
10471;SDS011;5283;48.876;8.962;2023-04-01T06:53:12;0.77;;;0.40;;
10471;SDS011;5283;48.876;8.962;2023-04-01T06:55:51;0.63;;;0.50;;
10471;SDS011;5283;48.876;8.962;2023-04-01T06:58:25;1.60;;;0.40;;
10471;SDS011;5283;48.876;8.962;2023-04-01T07:00:58;1.00;;;0.47;;
10471;SDS011;5283;48.876;8.962;2023-04-01T07:06:09;1.33;;;0.50;;
10471;SDS011;5283;48.876;8.962;2023-04-01T07:08:40;0.83;;;0.70;;
10471;SDS011;5283;48.876;8.962;2023-04-01T07:11:11;1.87;;;0.57;;
10471;SDS011;5283;48.876;8.962;2023-04-01T07:14:40;0.63;;;0.40;;
10471;SDS011;5283;48.876;8.962;2023-04-01T07:16:59;0.53;;;0.30;;
10471;SDS011;5283;48.876;8.962;2023-04-01T07:24:59;2.13;;;1.30;;
10471;SDS011;5283;48.876;8.962;2023-04-01T07:27:31;0.80;;;0.70;;
10471;SDS011;5283;48.876;8.962;2023-04-01T07:29:58;0.87;;;0.50;;
10471;SDS011;5283;48.876;8.962;2023-04-01T07:35:27;1.47;;;0.40;;
10471;SDS011;5283;48.876;8.962;2023-04-01T07:40:37;0.40;;;0.40;;
10471;SDS011;5283;48.876;8.962;2023-04-01T07:46:15;0.60;;;0.43;;
10471;SDS011;5283;48.876;8.962;2023-04-01T07:48:58;1.23;;;0.60;;
10471;SDS011;5283;48.876;8.962;2023-04-01T07:51:51;1.83;;;0.50;;
10471;SDS011;5283;48.876;8.962;2023-04-01T07:57:07;1.97;;;0.67;;
10471;SDS011;5283;48.876;8.962;2023-04-01T08:00:02;0.77;;;0.40;;
10471;SDS011;5283;48.876;8.962;2023-04-01T08:02:42;0.90;;;0.50;;
10471;SDS011;5283;48.876;8.962;2023-04-01T08:05:26;0.30;;;0.30;;
10471;SDS011;5283;48.876;8.962;2023-04-01T08:13:36;1.10;;;0.40;;
10471;SDS011;5283;48.876;8.962;2023-04-01T08:19:21;0.83;;;0.43;;
10471;SDS011;5283;48.876;8.962;2023-04-01T08:21:54;1.20;;;0.60;;
10471;SDS011;5283;48.876;8.962;2023-04-01T08:24:29;2.30;;;0.53;;
10471;SDS011;5283;48.876;8.962;2023-04-01T08:30:02;0.50;;;0.40;;
10471;SDS011;5283;48.876;8.962;2023-04-01T08:32:37;0.80;;;0.23;;
10471;SDS011;5283;48.876;8.962;2023-04-01T08:38:01;0.67;;;0.40;;
10471;SDS011;5283;48.876;8.962;2023-04-01T08:52:09;0.40;;;0.40;;
10471;SDS011;5283;48.876;8.962;2023-04-01T08:58:04;0.87;;;0.50;;
10471;SDS011;5283;48.876;8.962;2023-04-01T09:01:09;1.07;;;0.50;;
10471;SDS011;5283;48.876;8.962;2023-04-01T09:12:42;0.40;;;0.40;;
10471;SDS011;5283;48.876;8.962;2023-04-01T09:15:01;0.20;;;0.20;;
10471;SDS011;5283;48.876;8.962;2023-04-01T09:17:53;0.20;;;0.17;;
10471;SDS011;5283;48.876;8.962;2023-04-01T09:20:46;1.00;;;0.30;;
10471;SDS011;5283;48.876;8.962;2023-04-01T09:29:40;1.10;;;0.20;;
10471;SDS011;5283;48.876;8.962;2023-04-01T09:41:30;0.20;;;0.20;;
10471;SDS011;5283;48.876;8.962;2023-04-01T09:44:03;0.10;;;0.10;;
10471;SDS011;5283;48.876;8.962;2023-04-01T09:46:52;0.20;;;0.20;;
10471;SDS011;5283;48.876;8.962;2023-04-01T09:49:42;0.10;;;0.10;;
10471;SDS011;5283;48.876;8.962;2023-04-01T09:55:06;0.10;;;0.10;;
10471;SDS011;5283;48.876;8.962;2023-04-01T10:01:02;0.10;;;0.10;;
10471;SDS011;5283;48.876;8.962;2023-04-01T10:04:07;0.10;;;0.10;;
10471;SDS011;5283;48.876;8.962;2023-04-01T10:15:46;0.10;;;0.10;;
10471;SDS011;5283;48.876;8.962;2023-04-01T10:18:35;0.13;;;0.10;;
10471;SDS011;5283;48.876;8.962;2023-04-01T10:29:57;0.73;;;0.10;;
10471;SDS011;5283;48.876;8.962;2023-04-01T10:38:30;0.27;;;0.10;;
10471;SDS011;5283;48.876;8.962;2023-04-01T10:49:24;0.10;;;0.10;;
10471;SDS011;5283;48.876;8.962;2023-04-01T11:03:46;0.00;;;0.00;;
10471;SDS011;5283;48.876;8.962;2023-04-01T11:06:57;0.20;;;0.10;;
10471;SDS011;5283;48.876;8.962;2023-04-01T11:09:39;0.00;;;0.00;;
10471;SDS011;5283;48.876;8.962;2023-04-01T11:18:04;2.93;;;0.10;;
10471;SDS011;5283;48.876;8.962;2023-04-01T11:23:49;1.17;;;0.07;;
10471;SDS011;5283;48.876;8.962;2023-04-01T11:29:19;0.00;;;0.00;;
10471;SDS011;5283;48.876;8.962;2023-04-01T11:46:41;0.97;;;0.10;;
10471;SDS011;5283;48.876;8.962;2023-04-01T12:09:49;0.00;;;0.00;;
10471;SDS011;5283;48.876;8.962;2023-04-01T12:18:08;0.00;;;0.00;;
10471;SDS011;5283;48.876;8.962;2023-04-01T12:20:51;0.30;;;0.10;;
10471;SDS011;5283;48.876;8.962;2023-04-01T12:23:43;0.00;;;0.00;;
10471;SDS011;5283;48.876;8.962;2023-04-01T12:40:17;0.10;;;0.10;;
10471;SDS011;5283;48.876;8.962;2023-04-01T12:45:42;0.43;;;0.10;;
10471;SDS011;5283;48.876;8.962;2023-04-01T12:51:23;0.00;;;0.00;;
10471;SDS011;5283;48.876;8.962;2023-04-01T12:59:42;0.00;;;0.00;;
10471;SDS011;5283;48.876;8.962;2023-04-01T13:13:34;0.20;;;0.10;;
10471;SDS011;5283;48.876;8.962;2023-04-01T13:16:20;0.60;;;0.20;;
10471;SDS011;5283;48.876;8.962;2023-04-01T13:21:57;0.03;;;0.03;;
10471;SDS011;5283;48.876;8.962;2023-04-01T13:24:29;0.50;;;0.10;;
10471;SDS011;5283;48.876;8.962;2023-04-01T13:27:09;0.63;;;0.10;;
10471;SDS011;5283;48.876;8.962;2023-04-01T13:35:17;0.00;;;0.00;;
10471;SDS011;5283;48.876;8.962;2023-04-01T13:43:38;0.03;;;0.03;;
10471;SDS011;5283;48.876;8.962;2023-04-01T13:49:07;0.00;;;0.00;;
10471;SDS011;5283;48.876;8.962;2023-04-01T13:52:02;0.03;;;0.03;;
10471;SDS011;5283;48.876;8.962;2023-04-01T14:02:38;0.00;;;0.00;;
10471;SDS011;5283;48.876;8.962;2023-04-01T14:05:24;0.00;;;0.00;;
10471;SDS011;5283;48.876;8.962;2023-04-01T14:08:58;0.83;;;0.10;;
10471;SDS011;5283;48.876;8.962;2023-04-01T14:17:14;0.23;;;0.10;;
10471;SDS011;5283;48.876;8.962;2023-04-01T14:26:09;1.60;;;0.10;;
10471;SDS011;5283;48.876;8.962;2023-04-01T14:29:01;0.00;;;0.00;;
10471;SDS011;5283;48.876;8.962;2023-04-01T14:35:16;0.13;;;0.13;;
10471;SDS011;5283;48.876;8.962;2023-04-01T14:38:06;0.03;;;0.03;;
10471;SDS011;5283;48.876;8.962;2023-04-01T14:46:55;0.73;;;0.20;;
10471;SDS011;5283;48.876;8.962;2023-04-01T14:49:43;0.10;;;0.10;;
10471;SDS011;5283;48.876;8.962;2023-04-01T14:54:44;1.57;;;0.10;;
10471;SDS011;5283;48.876;8.962;2023-04-01T14:57:13;0.10;;;0.10;;
10471;SDS011;5283;48.876;8.962;2023-04-01T14:59:47;0.00;;;0.00;;
10471;SDS011;5283;48.876;8.962;2023-04-01T15:05:05;0.37;;;0.10;;
10471;SDS011;5283;48.876;8.962;2023-04-01T15:08:00;0.00;;;0.00;;
10471;SDS011;5283;48.876;8.962;2023-04-01T15:16:19;0.00;;;0.00;;
10471;SDS011;5283;48.876;8.962;2023-04-01T15:30:18;0.50;;;0.20;;
10471;SDS011;5283;48.876;8.962;2023-04-01T15:38:05;0.30;;;0.10;;
10471;SDS011;5283;48.876;8.962;2023-04-01T15:40:44;0.37;;;0.20;;
10471;SDS011;5283;48.876;8.962;2023-04-01T15:43:24;0.13;;;0.13;;
10471;SDS011;5283;48.876;8.962;2023-04-01T15:49:15;0.10;;;0.10;;
10471;SDS011;5283;48.876;8.962;2023-04-01T15:59:38;0.80;;;0.20;;
10471;SDS011;5283;48.876;8.962;2023-04-01T16:21:51;1.40;;;0.67;;
10471;SDS011;5283;48.876;8.962;2023-04-01T16:24:35;0.53;;;0.40;;
10471;SDS011;5283;48.876;8.962;2023-04-01T16:27:24;2.33;;;0.50;;
10471;SDS011;5283;48.876;8.962;2023-04-01T16:30:00;1.17;;;0.47;;
10471;SDS011;5283;48.876;8.962;2023-04-01T16:35:42;0.80;;;0.20;;
10471;SDS011;5283;48.876;8.962;2023-04-01T16:41:47;0.50;;;0.40;;
10471;SDS011;5283;48.876;8.962;2023-04-01T16:44:09;0.77;;;0.37;;
10471;SDS011;5283;48.876;8.962;2023-04-01T16:46:59;0.93;;;0.27;;
10471;SDS011;5283;48.876;8.962;2023-04-01T16:49:46;1.40;;;0.40;;
10471;SDS011;5283;48.876;8.962;2023-04-01T16:55:41;0.53;;;0.37;;
10471;SDS011;5283;48.876;8.962;2023-04-01T16:58:08;2.27;;;0.40;;
10471;SDS011;5283;48.876;8.962;2023-04-01T17:00:41;1.17;;;0.60;;
10471;SDS011;5283;48.876;8.962;2023-04-01T17:03:17;1.23;;;0.47;;
10471;SDS011;5283;48.876;8.962;2023-04-01T17:14:29;0.77;;;0.47;;
10471;SDS011;5283;48.876;8.962;2023-04-01T17:18:01;1.10;;;0.40;;
10471;SDS011;5283;48.876;8.962;2023-04-01T17:23:26;0.30;;;0.30;;
10471;SDS011;5283;48.876;8.962;2023-04-01T17:26:02;1.50;;;0.60;;
10471;SDS011;5283;48.876;8.962;2023-04-01T17:28:58;0.70;;;0.43;;
10471;SDS011;5283;48.876;8.962;2023-04-01T17:31:32;1.10;;;0.60;;
10471;SDS011;5283;48.876;8.962;2023-04-01T17:45:34;1.43;;;0.57;;
10471;SDS011;5283;48.876;8.962;2023-04-01T17:59:38;1.43;;;0.50;;
10471;SDS011;5283;48.876;8.962;2023-04-01T18:02:27;0.83;;;0.37;;
10471;SDS011;5283;48.876;8.962;2023-04-01T18:05:16;0.70;;;0.30;;
10471;SDS011;5283;48.876;8.962;2023-04-01T18:08:26;1.03;;;0.30;;
10471;SDS011;5283;48.876;8.962;2023-04-01T18:17:21;2.17;;;0.47;;
10471;SDS011;5283;48.876;8.962;2023-04-01T18:20:18;2.33;;;0.57;;
10471;SDS011;5283;48.876;8.962;2023-04-01T18:22:57;0.67;;;0.40;;
10471;SDS011;5283;48.876;8.962;2023-04-01T18:25:35;2.87;;;0.70;;
10471;SDS011;5283;48.876;8.962;2023-04-01T18:28:20;2.37;;;0.60;;
10471;SDS011;5283;48.876;8.962;2023-04-01T18:34:07;1.43;;;0.90;;
10471;SDS011;5283;48.876;8.962;2023-04-01T18:36:53;0.60;;;0.40;;
10471;SDS011;5283;48.876;8.962;2023-04-01T18:39:40;0.93;;;0.53;;
10471;SDS011;5283;48.876;8.962;2023-04-01T18:42:22;0.87;;;0.43;;
10471;SDS011;5283;48.876;8.962;2023-04-01T18:51:20;1.37;;;0.40;;
10471;SDS011;5283;48.876;8.962;2023-04-01T18:53:57;1.27;;;0.50;;
10471;SDS011;5283;48.876;8.962;2023-04-01T18:56:28;1.17;;;0.67;;
10471;SDS011;5283;48.876;8.962;2023-04-01T19:04:17;0.77;;;0.53;;
10471;SDS011;5283;48.876;8.962;2023-04-01T19:06:57;0.80;;;0.50;;
10471;SDS011;5283;48.876;8.962;2023-04-01T19:09:29;3.20;;;1.23;;
10471;SDS011;5283;48.876;8.962;2023-04-01T19:17:43;1.20;;;0.67;;
10471;SDS011;5283;48.876;8.962;2023-04-01T19:20:34;1.10;;;0.80;;
10471;SDS011;5283;48.876;8.962;2023-04-01T19:23:13;2.00;;;0.80;;
10471;SDS011;5283;48.876;8.962;2023-04-01T19:26:10;1.60;;;1.20;;
10471;SDS011;5283;48.876;8.962;2023-04-01T19:28:47;1.03;;;0.60;;
10471;SDS011;5283;48.876;8.962;2023-04-01T19:31:44;2.07;;;0.73;;
10471;SDS011;5283;48.876;8.962;2023-04-01T19:34:22;3.83;;;0.70;;
10471;SDS011;5283;48.876;8.962;2023-04-01T19:37:11;1.70;;;0.57;;
10471;SDS011;5283;48.876;8.962;2023-04-01T19:39:54;1.80;;;0.70;;
10471;SDS011;5283;48.876;8.962;2023-04-01T19:42:42;1.20;;;0.60;;
10471;SDS011;5283;48.876;8.962;2023-04-01T19:51:13;1.83;;;1.30;;
10471;SDS011;5283;48.876;8.962;2023-04-01T19:56:35;1.90;;;1.07;;
10471;SDS011;5283;48.876;8.962;2023-04-01T19:59:13;1.30;;;1.00;;
10471;SDS011;5283;48.876;8.962;2023-04-01T20:04:58;1.53;;;1.00;;
10471;SDS011;5283;48.876;8.962;2023-04-01T20:07:52;3.13;;;1.03;;
10471;SDS011;5283;48.876;8.962;2023-04-01T20:10:24;2.73;;;1.07;;
10471;SDS011;5283;48.876;8.962;2023-04-01T20:16:00;1.83;;;0.93;;
10471;SDS011;5283;48.876;8.962;2023-04-01T20:26:49;3.10;;;1.03;;
10471;SDS011;5283;48.876;8.962;2023-04-01T20:32:06;1.90;;;1.07;;
10471;SDS011;5283;48.876;8.962;2023-04-01T20:37:42;1.53;;;1.10;;
10471;SDS011;5283;48.876;8.962;2023-04-01T20:40:37;1.93;;;1.17;;
10471;SDS011;5283;48.876;8.962;2023-04-01T20:43:24;3.10;;;1.10;;
10471;SDS011;5283;48.876;8.962;2023-04-01T20:57:25;2.73;;;1.23;;
10471;SDS011;5283;48.876;8.962;2023-04-01T21:00:13;1.87;;;0.73;;
10471;SDS011;5283;48.876;8.962;2023-04-01T21:02:59;1.93;;;0.80;;
10471;SDS011;5283;48.876;8.962;2023-04-01T21:05:53;1.33;;;0.90;;
10471;SDS011;5283;48.876;8.962;2023-04-01T21:11:20;2.27;;;1.00;;
10471;SDS011;5283;48.876;8.962;2023-04-01T21:19:08;3.13;;;2.20;;
10471;SDS011;5283;48.876;8.962;2023-04-01T21:22:15;1.27;;;0.83;;
10471;SDS011;5283;48.876;8.962;2023-04-01T21:24:57;3.57;;;1.30;;
10471;SDS011;5283;48.876;8.962;2023-04-01T21:27:48;2.23;;;1.17;;
10471;SDS011;5283;48.876;8.962;2023-04-01T21:30:47;1.57;;;0.83;;
10471;SDS011;5283;48.876;8.962;2023-04-01T21:41:55;0.77;;;0.77;;
10471;SDS011;5283;48.876;8.962;2023-04-01T21:50:22;1.60;;;0.70;;
10471;SDS011;5283;48.876;8.962;2023-04-01T21:59:23;1.03;;;0.60;;
10471;SDS011;5283;48.876;8.962;2023-04-01T22:02:15;0.50;;;0.43;;
10471;SDS011;5283;48.876;8.962;2023-04-01T22:16:20;0.67;;;0.30;;
10471;SDS011;5283;48.876;8.962;2023-04-01T22:18:59;0.93;;;0.40;;
10471;SDS011;5283;48.876;8.962;2023-04-01T22:21:44;1.33;;;0.40;;
10471;SDS011;5283;48.876;8.962;2023-04-01T22:27:26;1.97;;;0.57;;
10471;SDS011;5283;48.876;8.962;2023-04-01T22:32:46;0.40;;;0.40;;
10471;SDS011;5283;48.876;8.962;2023-04-01T22:41:42;0.73;;;0.60;;
10471;SDS011;5283;48.876;8.962;2023-04-01T22:44:40;0.83;;;0.50;;
10471;SDS011;5283;48.876;8.962;2023-04-01T22:49:56;1.57;;;1.03;;
10471;SDS011;5283;48.876;8.962;2023-04-01T22:52:39;1.53;;;0.73;;
10471;SDS011;5283;48.876;8.962;2023-04-01T22:55:17;0.97;;;0.53;;
10471;SDS011;5283;48.876;8.962;2023-04-01T23:00:33;0.93;;;0.50;;
10471;SDS011;5283;48.876;8.962;2023-04-01T23:03:14;1.43;;;0.50;;
10471;SDS011;5283;48.876;8.962;2023-04-01T23:05:50;0.87;;;0.43;;
10471;SDS011;5283;48.876;8.962;2023-04-01T23:08:31;1.57;;;0.90;;
10471;SDS011;5283;48.876;8.962;2023-04-01T23:11:29;1.53;;;0.53;;
10471;SDS011;5283;48.876;8.962;2023-04-01T23:22:37;2.93;;;0.70;;
10471;SDS011;5283;48.876;8.962;2023-04-01T23:27:51;0.70;;;0.53;;
10471;SDS011;5283;48.876;8.962;2023-04-01T23:35:49;1.43;;;0.90;;
10471;SDS011;5283;48.876;8.962;2023-04-01T23:38:40;1.10;;;0.40;;
10471;SDS011;5283;48.876;8.962;2023-04-01T23:41:09;0.83;;;0.50;;
10471;SDS011;5283;48.876;8.962;2023-04-01T23:43:56;2.33;;;0.87;;
10471;SDS011;5283;48.876;8.962;2023-04-01T23:46:28;0.83;;;0.47;;
10471;SDS011;5283;48.876;8.962;2023-04-01T23:48:56;1.67;;;0.80;;
10471;SDS011;5283;48.876;8.962;2023-04-01T23:51:27;1.30;;;0.40;;
10471;SDS011;5283;48.876;8.962;2023-04-01T23:54:14;2.93;;;0.83;;
10471;SDS011;5283;48.876;8.962;2023-04-01T23:56:45;1.27;;;0.70;;
10471;SDS011;5283;48.876;8.962;2023-04-01T23:59:19;0.57;;;0.47;;
